sensor_id;sensor_type;location;lat;lon;timestamp;P1;durP1;ratioP1;P2;durP2;ratioP2
76863;SDS011;65834;52.364;9.754;2023-04-24T00:02:16;2.03;;;1.10;;
76863;SDS011;65834;52.364;9.754;2023-04-24T00:04:48;1.37;;;0.97;;
76863;SDS011;65834;52.364;9.754;2023-04-24T00:07:18;2.90;;;0.90;;
76863;SDS011;65834;52.364;9.754;2023-04-24T00:09:47;3.10;;;1.00;;
76863;SDS011;65834;52.364;9.754;2023-04-24T00:12:17;1.13;;;0.87;;
76863;SDS011;65834;52.364;9.754;2023-04-24T00:14:47;1.77;;;0.97;;
76863;SDS011;65834;52.364;9.754;2023-04-24T00:17:16;4.93;;;1.20;;
76863;SDS011;65834;52.364;9.754;2023-04-24T00:19:49;1.20;;;0.87;;
76863;SDS011;65834;52.364;9.754;2023-04-24T00:22:25;1.77;;;0.87;;
76863;SDS011;65834;52.364;9.754;2023-04-24T00:24:54;2.93;;;1.20;;
76863;SDS011;65834;52.364;9.754;2023-04-24T00:27:24;1.40;;;1.00;;
76863;SDS011;65834;52.364;9.754;2023-04-24T00:29:54;3.40;;;1.20;;
76863;SDS011;65834;52.364;9.754;2023-04-24T00:32:23;1.40;;;0.87;;
76863;SDS011;65834;52.364;9.754;2023-04-24T00:34:57;2.47;;;1.00;;
76863;SDS011;65834;52.364;9.754;2023-04-24T00:37:26;5.28;;;1.20;;
76863;SDS011;65834;52.364;9.754;2023-04-24T00:39:56;2.43;;;1.37;;
76863;SDS011;65834;52.364;9.754;2023-04-24T00:42:26;2.83;;;1.30;;
76863;SDS011;65834;52.364;9.754;2023-04-24T00:44:56;3.97;;;1.40;;
76863;SDS011;65834;52.364;9.754;2023-04-24T00:47:26;1.30;;;1.00;;
76863;SDS011;65834;52.364;9.754;2023-04-24T00:49:59;1.87;;;1.07;;
76863;SDS011;65834;52.364;9.754;2023-04-24T00:52:31;1.97;;;1.00;;
76863;SDS011;65834;52.364;9.754;2023-04-24T00:55:02;2.03;;;1.00;;
76863;SDS011;65834;52.364;9.754;2023-04-24T00:57:32;1.73;;;1.20;;
76863;SDS011;65834;52.364;9.754;2023-04-24T01:00:02;3.37;;;1.13;;
76863;SDS011;65834;52.364;9.754;2023-04-24T01:02:38;2.53;;;1.20;;
76863;SDS011;65834;52.364;9.754;2023-04-24T01:05:13;2.92;;;0.90;;
76863;SDS011;65834;52.364;9.754;2023-04-24T01:07:44;4.00;;;1.13;;
76863;SDS011;65834;52.364;9.754;2023-04-24T01:10:15;3.60;;;1.70;;
76863;SDS011;65834;52.364;9.754;2023-04-24T01:12:46;2.17;;;1.10;;
76863;SDS011;65834;52.364;9.754;2023-04-24T01:15:16;1.13;;;1.00;;
76863;SDS011;65834;52.364;9.754;2023-04-24T01:17:45;2.93;;;1.00;;
76863;SDS011;65834;52.364;9.754;2023-04-24T01:20:19;2.43;;;1.00;;
76863;SDS011;65834;52.364;9.754;2023-04-24T01:22:51;2.17;;;1.40;;
76863;SDS011;65834;52.364;9.754;2023-04-24T01:25:22;2.20;;;1.07;;
76863;SDS011;65834;52.364;9.754;2023-04-24T01:27:52;1.20;;;1.00;;
76863;SDS011;65834;52.364;9.754;2023-04-24T01:30:22;2.23;;;1.00;;
76863;SDS011;65834;52.364;9.754;2023-04-24T01:32:52;2.97;;;1.10;;
76863;SDS011;65834;52.364;9.754;2023-04-24T01:35:22;1.90;;;1.00;;
76863;SDS011;65834;52.364;9.754;2023-04-24T01:37:55;1.50;;;0.70;;
76863;SDS011;65834;52.364;9.754;2023-04-24T01:40:24;4.40;;;1.20;;
76863;SDS011;65834;52.364;9.754;2023-04-24T01:42:56;2.25;;;1.10;;
76863;SDS011;65834;52.364;9.754;2023-04-24T01:47:58;2.27;;;1.27;;
76863;SDS011;65834;52.364;9.754;2023-04-24T01:50:29;2.90;;;1.17;;
76863;SDS011;65834;52.364;9.754;2023-04-24T01:53:01;2.37;;;0.90;;
76863;SDS011;65834;52.364;9.754;2023-04-24T01:55:31;1.42;;;1.10;;
76863;SDS011;65834;52.364;9.754;2023-04-24T01:58:00;3.10;;;1.13;;
76863;SDS011;65834;52.364;9.754;2023-04-24T02:00:30;2.40;;;1.10;;
76863;SDS011;65834;52.364;9.754;2023-04-24T02:03:00;1.30;;;0.93;;
76863;SDS011;65834;52.364;9.754;2023-04-24T02:05:30;3.83;;;1.30;;
76863;SDS011;65834;52.364;9.754;2023-04-24T02:08:04;3.05;;;1.08;;
76863;SDS011;65834;52.364;9.754;2023-04-24T02:10:36;3.57;;;1.10;;
76863;SDS011;65834;52.364;9.754;2023-04-24T02:13:06;1.93;;;1.30;;
76863;SDS011;65834;52.364;9.754;2023-04-24T02:15:35;3.20;;;1.13;;
76863;SDS011;65834;52.364;9.754;2023-04-24T02:18:05;1.03;;;0.70;;
76863;SDS011;65834;52.364;9.754;2023-04-24T02:20:35;1.57;;;0.87;;
76863;SDS011;65834;52.364;9.754;2023-04-24T02:23:07;2.17;;;1.00;;
76863;SDS011;65834;52.364;9.754;2023-04-24T02:25:37;2.22;;;1.10;;
76863;SDS011;65834;52.364;9.754;2023-04-24T02:28:07;1.27;;;0.90;;
76863;SDS011;65834;52.364;9.754;2023-04-24T02:30:36;4.10;;;1.10;;
76863;SDS011;65834;52.364;9.754;2023-04-24T02:33:06;1.23;;;0.97;;
76863;SDS011;65834;52.364;9.754;2023-04-24T02:35:35;2.30;;;1.07;;
76863;SDS011;65834;52.364;9.754;2023-04-24T02:38:08;2.20;;;0.90;;
76863;SDS011;65834;52.364;9.754;2023-04-24T02:40:37;1.25;;;1.02;;
76863;SDS011;65834;52.364;9.754;2023-04-24T02:43:09;2.70;;;1.10;;
76863;SDS011;65834;52.364;9.754;2023-04-24T02:45:38;4.23;;;1.27;;
76863;SDS011;65834;52.364;9.754;2023-04-24T02:48:08;2.27;;;1.03;;
76863;SDS011;65834;52.364;9.754;2023-04-24T02:50:37;2.07;;;1.10;;
76863;SDS011;65834;52.364;9.754;2023-04-24T02:53:10;2.73;;;1.07;;
76863;SDS011;65834;52.364;9.754;2023-04-24T02:55:39;2.50;;;1.02;;
76863;SDS011;65834;52.364;9.754;2023-04-24T02:58:09;3.43;;;1.10;;
76863;SDS011;65834;52.364;9.754;2023-04-24T03:00:39;2.20;;;0.97;;
76863;SDS011;65834;52.364;9.754;2023-04-24T03:03:09;2.63;;;1.00;;
76863;SDS011;65834;52.364;9.754;2023-04-24T03:05:39;2.40;;;1.30;;
76863;SDS011;65834;52.364;9.754;2023-04-24T03:08:11;3.27;;;0.83;;
76863;SDS011;65834;52.364;9.754;2023-04-24T03:10:41;1.20;;;0.95;;
76863;SDS011;65834;52.364;9.754;2023-04-24T03:13:14;1.40;;;0.80;;
76863;SDS011;65834;52.364;9.754;2023-04-24T03:15:44;2.27;;;0.93;;
76863;SDS011;65834;52.364;9.754;2023-04-24T03:18:14;1.40;;;0.83;;
76863;SDS011;65834;52.364;9.754;2023-04-24T03:20:45;2.03;;;1.20;;
76863;SDS011;65834;52.364;9.754;2023-04-24T03:23:18;1.73;;;0.70;;
76863;SDS011;65834;52.364;9.754;2023-04-24T03:25:48;1.52;;;0.88;;
76863;SDS011;65834;52.364;9.754;2023-04-24T03:28:18;1.37;;;0.90;;
76863;SDS011;65834;52.364;9.754;2023-04-24T03:30:57;4.03;;;0.93;;
76863;SDS011;65834;52.364;9.754;2023-04-24T03:33:30;2.57;;;0.90;;
76863;SDS011;65834;52.364;9.754;2023-04-24T03:36:00;0.73;;;0.70;;
76863;SDS011;65834;52.364;9.754;2023-04-24T03:38:41;3.13;;;1.00;;
76863;SDS011;65834;52.364;9.754;2023-04-24T03:41:32;1.87;;;0.90;;
76863;SDS011;65834;52.364;9.754;2023-04-24T03:44:11;1.73;;;0.80;;
76863;SDS011;65834;52.364;9.754;2023-04-24T03:46:41;3.00;;;1.03;;
76863;SDS011;65834;52.364;9.754;2023-04-24T03:49:11;1.83;;;1.00;;
76863;SDS011;65834;52.364;9.754;2023-04-24T03:51:43;1.40;;;1.20;;
76863;SDS011;65834;52.364;9.754;2023-04-24T03:54:22;2.93;;;1.30;;
76863;SDS011;65834;52.364;9.754;2023-04-24T03:56:52;1.13;;;0.90;;
76863;SDS011;65834;52.364;9.754;2023-04-24T03:59:25;2.72;;;1.25;;
76863;SDS011;65834;52.364;9.754;2023-04-24T04:02:07;3.15;;;1.27;;
76863;SDS011;65834;52.364;9.754;2023-04-24T04:04:37;2.67;;;1.20;;
76863;SDS011;65834;52.364;9.754;2023-04-24T04:07:07;2.80;;;1.20;;
76863;SDS011;65834;52.364;9.754;2023-04-24T04:09:40;2.17;;;1.30;;
76863;SDS011;65834;52.364;9.754;2023-04-24T04:12:10;1.92;;;1.20;;
76863;SDS011;65834;52.364;9.754;2023-04-24T04:14:39;5.07;;;1.30;;
76863;SDS011;65834;52.364;9.754;2023-04-24T04:17:09;3.10;;;1.20;;
76863;SDS011;65834;52.364;9.754;2023-04-24T04:19:39;4.07;;;1.10;;
76863;SDS011;65834;52.364;9.754;2023-04-24T04:22:08;1.90;;;1.10;;
76863;SDS011;65834;52.364;9.754;2023-04-24T04:24:44;3.27;;;1.10;;
76863;SDS011;65834;52.364;9.754;2023-04-24T04:27:14;2.78;;;1.05;;
76863;SDS011;65834;52.364;9.754;2023-04-24T04:29:52;4.53;;;1.07;;
76863;SDS011;65834;52.364;9.754;2023-04-24T04:32:23;1.30;;;0.90;;
76863;SDS011;65834;52.364;9.754;2023-04-24T04:34:52;1.17;;;0.83;;
76863;SDS011;65834;52.364;9.754;2023-04-24T04:37:25;4.57;;;1.10;;
76863;SDS011;65834;52.364;9.754;2023-04-24T04:40:16;1.23;;;0.80;;
76863;SDS011;65834;52.364;9.754;2023-04-24T04:42:54;2.83;;;1.10;;
76863;SDS011;65834;52.364;9.754;2023-04-24T04:45:27;1.60;;;0.77;;
76863;SDS011;65834;52.364;9.754;2023-04-24T04:48:16;4.23;;;1.20;;
76863;SDS011;65834;52.364;9.754;2023-04-24T04:50:46;2.63;;;1.00;;
76863;SDS011;65834;52.364;9.754;2023-04-24T04:53:16;1.60;;;0.90;;
76863;SDS011;65834;52.364;9.754;2023-04-24T04:55:48;1.97;;;1.20;;
76863;SDS011;65834;52.364;9.754;2023-04-24T04:58:21;4.30;;;2.30;;
76863;SDS011;65834;52.364;9.754;2023-04-24T05:00:54;1.73;;;1.00;;
76863;SDS011;65834;52.364;9.754;2023-04-24T05:03:29;2.30;;;1.07;;
76863;SDS011;65834;52.364;9.754;2023-04-24T05:06:06;1.80;;;1.10;;
76863;SDS011;65834;52.364;9.754;2023-04-24T05:08:38;1.25;;;0.77;;
76863;SDS011;65834;52.364;9.754;2023-04-24T05:11:15;2.90;;;1.10;;
76863;SDS011;65834;52.364;9.754;2023-04-24T05:13:45;2.63;;;1.20;;
76863;SDS011;65834;52.364;9.754;2023-04-24T05:16:19;1.63;;;1.00;;
76863;SDS011;65834;52.364;9.754;2023-04-24T05:18:51;2.67;;;1.10;;
76863;SDS011;65834;52.364;9.754;2023-04-24T05:21:26;2.10;;;1.00;;
76863;SDS011;65834;52.364;9.754;2023-04-24T05:23:57;1.77;;;0.90;;
76863;SDS011;65834;52.364;9.754;2023-04-24T05:26:43;1.27;;;0.80;;
76863;SDS011;65834;52.364;9.754;2023-04-24T05:29:16;2.03;;;0.93;;
76863;SDS011;65834;52.364;9.754;2023-04-24T05:31:46;2.13;;;1.10;;
76863;SDS011;65834;52.364;9.754;2023-04-24T05:34:16;1.97;;;1.03;;
76863;SDS011;65834;52.364;9.754;2023-04-24T05:36:51;1.80;;;1.13;;
76863;SDS011;65834;52.364;9.754;2023-04-24T05:39:21;2.23;;;1.10;;
76863;SDS011;65834;52.364;9.754;2023-04-24T05:41:55;1.60;;;0.90;;
76863;SDS011;65834;52.364;9.754;2023-04-24T05:44:25;2.50;;;1.10;;
76863;SDS011;65834;52.364;9.754;2023-04-24T05:46:55;3.93;;;1.20;;
76863;SDS011;65834;52.364;9.754;2023-04-24T05:49:25;4.30;;;1.60;;
76863;SDS011;65834;52.364;9.754;2023-04-24T05:51:56;6.93;;;2.17;;
76863;SDS011;65834;52.364;9.754;2023-04-24T05:54:26;4.07;;;1.67;;
76863;SDS011;65834;52.364;9.754;2023-04-24T05:56:59;3.93;;;1.50;;
76863;SDS011;65834;52.364;9.754;2023-04-24T05:59:47;5.93;;;2.20;;
76863;SDS011;65834;52.364;9.754;2023-04-24T06:02:19;3.33;;;1.63;;
76863;SDS011;65834;52.364;9.754;2023-04-24T06:04:49;4.27;;;1.73;;
76863;SDS011;65834;52.364;9.754;2023-04-24T06:07:19;4.63;;;1.90;;
76863;SDS011;65834;52.364;9.754;2023-04-24T06:09:49;5.67;;;1.80;;
76863;SDS011;65834;52.364;9.754;2023-04-24T06:12:21;3.93;;;1.60;;
76863;SDS011;65834;52.364;9.754;2023-04-24T06:15:03;2.97;;;1.40;;
76863;SDS011;65834;52.364;9.754;2023-04-24T06:17:53;2.40;;;1.30;;
76863;SDS011;65834;52.364;9.754;2023-04-24T06:20:23;1.50;;;1.00;;
76863;SDS011;65834;52.364;9.754;2023-04-24T06:22:52;6.00;;;2.13;;
76863;SDS011;65834;52.364;9.754;2023-04-24T06:25:24;2.10;;;1.10;;
76863;SDS011;65834;52.364;9.754;2023-04-24T06:27:57;2.58;;;1.15;;
76863;SDS011;65834;52.364;9.754;2023-04-24T06:30:29;2.73;;;1.40;;
76863;SDS011;65834;52.364;9.754;2023-04-24T06:32:59;4.60;;;1.40;;
76863;SDS011;65834;52.364;9.754;2023-04-24T06:35:44;2.87;;;1.60;;
76863;SDS011;65834;52.364;9.754;2023-04-24T06:38:14;3.97;;;1.63;;
76863;SDS011;65834;52.364;9.754;2023-04-24T06:40:44;5.17;;;1.80;;
76863;SDS011;65834;52.364;9.754;2023-04-24T06:43:17;5.20;;;2.13;;
76863;SDS011;65834;52.364;9.754;2023-04-24T06:45:46;4.07;;;1.83;;
76863;SDS011;65834;52.364;9.754;2023-04-24T06:48:16;4.90;;;2.00;;
76863;SDS011;65834;52.364;9.754;2023-04-24T06:50:46;4.37;;;2.27;;
76863;SDS011;65834;52.364;9.754;2023-04-24T06:53:16;6.57;;;2.53;;
76863;SDS011;65834;52.364;9.754;2023-04-24T06:55:47;7.50;;;3.40;;
76863;SDS011;65834;52.364;9.754;2023-04-24T06:58:19;10.10;;;3.03;;
76863;SDS011;65834;52.364;9.754;2023-04-24T07:03:19;8.10;;;3.70;;
76863;SDS011;65834;52.364;9.754;2023-04-24T07:05:48;8.43;;;3.63;;
76863;SDS011;65834;52.364;9.754;2023-04-24T07:08:19;10.63;;;3.30;;
76863;SDS011;65834;52.364;9.754;2023-04-24T07:10:49;7.67;;;3.20;;
76863;SDS011;65834;52.364;9.754;2023-04-24T07:13:22;9.37;;;3.50;;
76863;SDS011;65834;52.364;9.754;2023-04-24T07:15:53;9.13;;;3.30;;
76863;SDS011;65834;52.364;9.754;2023-04-24T07:18:23;8.70;;;3.50;;
76863;SDS011;65834;52.364;9.754;2023-04-24T07:20:53;6.73;;;3.17;;
76863;SDS011;65834;52.364;9.754;2023-04-24T07:23:23;9.03;;;3.77;;
76863;SDS011;65834;52.364;9.754;2023-04-24T07:25:52;9.23;;;3.67;;
76863;SDS011;65834;52.364;9.754;2023-04-24T07:28:25;9.40;;;3.60;;
76863;SDS011;65834;52.364;9.754;2023-04-24T07:30:57;8.90;;;3.63;;
76863;SDS011;65834;52.364;9.754;2023-04-24T07:33:27;8.57;;;3.87;;
76863;SDS011;65834;52.364;9.754;2023-04-24T07:35:57;10.00;;;4.00;;
76863;SDS011;65834;52.364;9.754;2023-04-24T07:38:29;10.23;;;4.00;;
76863;SDS011;65834;52.364;9.754;2023-04-24T07:40:58;10.97;;;3.77;;
76863;SDS011;65834;52.364;9.754;2023-04-24T07:43:30;8.60;;;3.90;;
76863;SDS011;65834;52.364;9.754;2023-04-24T07:46:00;11.32;;;4.10;;
76863;SDS011;65834;52.364;9.754;2023-04-24T07:48:31;9.17;;;4.13;;
76863;SDS011;65834;52.364;9.754;2023-04-24T07:51:03;7.70;;;3.33;;
76863;SDS011;65834;52.364;9.754;2023-04-24T07:53:33;9.63;;;3.77;;
76863;SDS011;65834;52.364;9.754;2023-04-24T07:56:03;11.07;;;4.50;;
76863;SDS011;65834;52.364;9.754;2023-04-24T07:58:36;9.93;;;4.67;;
76863;SDS011;65834;52.364;9.754;2023-04-24T08:01:06;12.00;;;4.55;;
76863;SDS011;65834;52.364;9.754;2023-04-24T08:03:36;11.17;;;5.17;;
76863;SDS011;65834;52.364;9.754;2023-04-24T08:06:06;13.33;;;5.60;;
76863;SDS011;65834;52.364;9.754;2023-04-24T08:08:36;10.97;;;4.73;;
76863;SDS011;65834;52.364;9.754;2023-04-24T08:11:05;12.43;;;5.27;;
76863;SDS011;65834;52.364;9.754;2023-04-24T08:13:38;11.37;;;4.73;;
76863;SDS011;65834;52.364;9.754;2023-04-24T08:16:07;10.82;;;5.20;;
76863;SDS011;65834;52.364;9.754;2023-04-24T08:18:37;11.97;;;5.03;;
76863;SDS011;65834;52.364;9.754;2023-04-24T08:21:06;12.97;;;5.73;;
76863;SDS011;65834;52.364;9.754;2023-04-24T08:23:37;11.57;;;5.23;;
76863;SDS011;65834;52.364;9.754;2023-04-24T08:26:07;10.77;;;4.60;;
76863;SDS011;65834;52.364;9.754;2023-04-24T08:28:40;11.47;;;5.90;;
76863;SDS011;65834;52.364;9.754;2023-04-24T08:31:09;10.55;;;4.90;;
76863;SDS011;65834;52.364;9.754;2023-04-24T08:33:39;11.63;;;4.93;;
76863;SDS011;65834;52.364;9.754;2023-04-24T08:36:11;12.93;;;4.75;;
76863;SDS011;65834;52.364;9.754;2023-04-24T08:38:41;10.73;;;4.93;;
76863;SDS011;65834;52.364;9.754;2023-04-24T08:41:12;13.87;;;5.50;;
76863;SDS011;65834;52.364;9.754;2023-04-24T08:43:46;12.37;;;4.67;;
76863;SDS011;65834;52.364;9.754;2023-04-24T08:46:16;13.00;;;5.30;;
76863;SDS011;65834;52.364;9.754;2023-04-24T08:48:46;11.20;;;4.67;;
76863;SDS011;65834;52.364;9.754;2023-04-24T08:51:16;12.67;;;4.80;;
76863;SDS011;65834;52.364;9.754;2023-04-24T08:53:46;12.27;;;5.10;;
76863;SDS011;65834;52.364;9.754;2023-04-24T08:56:16;9.70;;;4.30;;
76863;SDS011;65834;52.364;9.754;2023-04-24T08:58:48;9.70;;;4.07;;
76863;SDS011;65834;52.364;9.754;2023-04-24T09:01:19;8.90;;;3.50;;
76863;SDS011;65834;52.364;9.754;2023-04-24T09:03:49;9.87;;;3.43;;
76863;SDS011;65834;52.364;9.754;2023-04-24T09:06:19;9.37;;;3.67;;
76863;SDS011;65834;52.364;9.754;2023-04-24T09:08:51;7.30;;;3.00;;
76863;SDS011;65834;52.364;9.754;2023-04-24T09:11:23;8.73;;;3.10;;
76863;SDS011;65834;52.364;9.754;2023-04-24T09:13:56;6.93;;;2.87;;
76863;SDS011;65834;52.364;9.754;2023-04-24T09:18:56;4.83;;;2.40;;
76863;SDS011;65834;52.364;9.754;2023-04-24T09:21:30;7.20;;;2.60;;
76863;SDS011;65834;52.364;9.754;2023-04-24T09:24:02;6.00;;;2.83;;
76863;SDS011;65834;52.364;9.754;2023-04-24T09:26:35;5.90;;;2.77;;
76863;SDS011;65834;52.364;9.754;2023-04-24T09:29:07;6.47;;;2.90;;
76863;SDS011;65834;52.364;9.754;2023-04-24T09:31:43;6.87;;;2.60;;
76863;SDS011;65834;52.364;9.754;2023-04-24T09:34:14;8.77;;;3.33;;
76863;SDS011;65834;52.364;9.754;2023-04-24T09:36:43;7.50;;;2.90;;
76863;SDS011;65834;52.364;9.754;2023-04-24T09:39:14;7.77;;;3.23;;
76863;SDS011;65834;52.364;9.754;2023-04-24T09:41:46;6.83;;;2.93;;
76863;SDS011;65834;52.364;9.754;2023-04-24T09:44:19;8.03;;;3.60;;
76863;SDS011;65834;52.364;9.754;2023-04-24T09:46:51;7.13;;;2.87;;
76863;SDS011;65834;52.364;9.754;2023-04-24T09:49:22;8.77;;;3.77;;
76863;SDS011;65834;52.364;9.754;2023-04-24T09:51:53;8.00;;;3.30;;
76863;SDS011;65834;52.364;9.754;2023-04-24T09:54:32;7.27;;;3.43;;
76863;SDS011;65834;52.364;9.754;2023-04-24T09:57:03;7.73;;;3.50;;
76863;SDS011;65834;52.364;9.754;2023-04-24T09:59:38;7.20;;;3.00;;
76863;SDS011;65834;52.364;9.754;2023-04-24T10:02:16;8.53;;;3.60;;
76863;SDS011;65834;52.364;9.754;2023-04-24T10:04:53;9.23;;;3.80;;
76863;SDS011;65834;52.364;9.754;2023-04-24T10:07:26;6.83;;;3.13;;
76863;SDS011;65834;52.364;9.754;2023-04-24T10:09:56;7.07;;;2.83;;
76863;SDS011;65834;52.364;9.754;2023-04-24T10:12:26;8.20;;;3.50;;
76863;SDS011;65834;52.364;9.754;2023-04-24T10:14:59;8.00;;;3.83;;
76863;SDS011;65834;52.364;9.754;2023-04-24T10:17:32;7.57;;;3.33;;
76863;SDS011;65834;52.364;9.754;2023-04-24T10:20:02;6.20;;;2.90;;
76863;SDS011;65834;52.364;9.754;2023-04-24T10:22:32;8.20;;;3.50;;
76863;SDS011;65834;52.364;9.754;2023-04-24T10:25:03;6.90;;;3.10;;
76863;SDS011;65834;52.364;9.754;2023-04-24T10:27:35;7.85;;;3.00;;
76863;SDS011;65834;52.364;9.754;2023-04-24T10:30:10;6.73;;;2.87;;
76863;SDS011;65834;52.364;9.754;2023-04-24T10:32:41;8.67;;;3.10;;
76863;SDS011;65834;52.364;9.754;2023-04-24T10:35:11;7.97;;;3.37;;
76863;SDS011;65834;52.364;9.754;2023-04-24T10:37:43;7.13;;;2.90;;
76863;SDS011;65834;52.364;9.754;2023-04-24T10:40:16;6.93;;;3.00;;
76863;SDS011;65834;52.364;9.754;2023-04-24T10:42:47;6.05;;;2.83;;
76863;SDS011;65834;52.364;9.754;2023-04-24T10:45:20;5.70;;;2.90;;
76863;SDS011;65834;52.364;9.754;2023-04-24T10:47:52;5.40;;;2.50;;
76863;SDS011;65834;52.364;9.754;2023-04-24T10:50:22;6.23;;;2.63;;
76863;SDS011;65834;52.364;9.754;2023-04-24T10:52:52;4.93;;;2.57;;
76863;SDS011;65834;52.364;9.754;2023-04-24T10:58:12;8.07;;;2.87;;
76863;SDS011;65834;52.364;9.754;2023-04-24T11:00:54;5.40;;;2.77;;
76863;SDS011;65834;52.364;9.754;2023-04-24T11:05:57;4.87;;;2.50;;
76863;SDS011;65834;52.364;9.754;2023-04-24T11:08:30;5.88;;;2.58;;
76863;SDS011;65834;52.364;9.754;2023-04-24T11:11:01;6.87;;;2.70;;
76863;SDS011;65834;52.364;9.754;2023-04-24T11:16:42;5.60;;;2.57;;
76863;SDS011;65834;52.364;9.754;2023-04-24T11:19:23;5.53;;;2.37;;
76863;SDS011;65834;52.364;9.754;2023-04-24T11:21:56;4.30;;;2.07;;
76863;SDS011;65834;52.364;9.754;2023-04-24T11:24:29;4.80;;;2.50;;
76863;SDS011;65834;52.364;9.754;2023-04-24T11:27:05;5.13;;;2.22;;
76863;SDS011;65834;52.364;9.754;2023-04-24T11:29:40;3.40;;;2.10;;
76863;SDS011;65834;52.364;9.754;2023-04-24T11:32:23;2.73;;;1.67;;
76863;SDS011;65834;52.364;9.754;2023-04-24T11:34:55;5.28;;;2.00;;
76863;SDS011;65834;52.364;9.754;2023-04-24T11:37:27;3.80;;;1.50;;
76863;SDS011;65834;52.364;9.754;2023-04-24T11:39:58;3.37;;;1.70;;
76863;SDS011;65834;52.364;9.754;2023-04-24T11:42:28;3.20;;;1.73;;
76863;SDS011;65834;52.364;9.754;2023-04-24T11:45:07;2.97;;;1.80;;
76863;SDS011;65834;52.364;9.754;2023-04-24T11:47:41;2.43;;;1.30;;
76863;SDS011;65834;52.364;9.754;2023-04-24T11:50:12;4.27;;;1.53;;
76863;SDS011;65834;52.364;9.754;2023-04-24T11:52:43;3.13;;;1.30;;
76863;SDS011;65834;52.364;9.754;2023-04-24T11:55:24;2.67;;;1.50;;
76863;SDS011;65834;52.364;9.754;2023-04-24T11:57:58;3.63;;;1.70;;
76863;SDS011;65834;52.364;9.754;2023-04-24T12:00:28;4.13;;;1.57;;
76863;SDS011;65834;52.364;9.754;2023-04-24T12:03:06;3.00;;;1.50;;
76863;SDS011;65834;52.364;9.754;2023-04-24T12:05:38;2.93;;;1.23;;
76863;SDS011;65834;52.364;9.754;2023-04-24T12:08:08;2.63;;;1.13;;
76863;SDS011;65834;52.364;9.754;2023-04-24T12:10:38;3.03;;;1.23;;
76863;SDS011;65834;52.364;9.754;2023-04-24T12:13:09;1.60;;;1.07;;
76863;SDS011;65834;52.364;9.754;2023-04-24T12:15:39;1.90;;;1.10;;
76863;SDS011;65834;52.364;9.754;2023-04-24T12:18:14;2.73;;;1.40;;
76863;SDS011;65834;52.364;9.754;2023-04-24T12:20:46;1.03;;;0.90;;
76863;SDS011;65834;52.364;9.754;2023-04-24T12:23:15;3.73;;;1.50;;
76863;SDS011;65834;52.364;9.754;2023-04-24T12:25:45;1.20;;;1.00;;
76863;SDS011;65834;52.364;9.754;2023-04-24T12:28:15;3.00;;;0.93;;
76863;SDS011;65834;52.364;9.754;2023-04-24T12:30:46;2.30;;;0.97;;
76863;SDS011;65834;52.364;9.754;2023-04-24T12:33:20;1.63;;;0.90;;
76863;SDS011;65834;52.364;9.754;2023-04-24T12:35:51;1.27;;;0.90;;
76863;SDS011;65834;52.364;9.754;2023-04-24T12:38:22;2.13;;;0.97;;
76863;SDS011;65834;52.364;9.754;2023-04-24T12:41:01;2.45;;;1.40;;
76863;SDS011;65834;52.364;9.754;2023-04-24T12:43:33;2.03;;;1.20;;
76863;SDS011;65834;52.364;9.754;2023-04-24T12:46:03;1.57;;;1.30;;
76863;SDS011;65834;52.364;9.754;2023-04-24T12:48:35;1.57;;;1.13;;
76863;SDS011;65834;52.364;9.754;2023-04-24T12:51:05;2.97;;;1.30;;
76863;SDS011;65834;52.364;9.754;2023-04-24T12:53:35;1.73;;;1.20;;
76863;SDS011;65834;52.364;9.754;2023-04-24T12:56:05;3.00;;;1.20;;
76863;SDS011;65834;52.364;9.754;2023-04-24T12:58:34;3.80;;;1.43;;
76863;SDS011;65834;52.364;9.754;2023-04-24T13:01:04;1.83;;;1.23;;
76863;SDS011;65834;52.364;9.754;2023-04-24T13:03:36;2.20;;;1.40;;
76863;SDS011;65834;52.364;9.754;2023-04-24T13:06:06;3.20;;;1.27;;
76863;SDS011;65834;52.364;9.754;2023-04-24T13:08:35;2.40;;;1.20;;
76863;SDS011;65834;52.364;9.754;2023-04-24T13:11:05;1.83;;;1.33;;
76863;SDS011;65834;52.364;9.754;2023-04-24T13:13:35;3.93;;;1.57;;
76863;SDS011;65834;52.364;9.754;2023-04-24T13:16:04;2.03;;;1.30;;
76863;SDS011;65834;52.364;9.754;2023-04-24T13:18:36;1.57;;;1.10;;
76863;SDS011;65834;52.364;9.754;2023-04-24T13:21:06;1.95;;;1.20;;
76863;SDS011;65834;52.364;9.754;2023-04-24T13:23:36;4.53;;;1.43;;
76863;SDS011;65834;52.364;9.754;2023-04-24T13:26:06;2.80;;;1.60;;
76863;SDS011;65834;52.364;9.754;2023-04-24T13:28:35;2.37;;;1.30;;
76863;SDS011;65834;52.364;9.754;2023-04-24T13:31:05;3.47;;;1.50;;
76863;SDS011;65834;52.364;9.754;2023-04-24T13:33:37;3.57;;;1.40;;
76863;SDS011;65834;52.364;9.754;2023-04-24T13:36:07;5.50;;;1.63;;
76863;SDS011;65834;52.364;9.754;2023-04-24T13:38:37;2.50;;;1.20;;
76863;SDS011;65834;52.364;9.754;2023-04-24T13:41:07;2.03;;;1.30;;
76863;SDS011;65834;52.364;9.754;2023-04-24T13:43:37;3.40;;;1.20;;
76863;SDS011;65834;52.364;9.754;2023-04-24T13:46:08;3.07;;;0.90;;
76863;SDS011;65834;52.364;9.754;2023-04-24T13:48:40;2.00;;;1.07;;
76863;SDS011;65834;52.364;9.754;2023-04-24T13:51:10;2.80;;;1.17;;
76863;SDS011;65834;52.364;9.754;2023-04-24T13:53:39;6.57;;;1.20;;
76863;SDS011;65834;52.364;9.754;2023-04-24T13:56:09;3.27;;;1.00;;
76863;SDS011;65834;52.364;9.754;2023-04-24T13:58:40;0.57;;;0.53;;
76863;SDS011;65834;52.364;9.754;2023-04-24T14:01:10;1.47;;;0.63;;
76863;SDS011;65834;52.364;9.754;2023-04-24T14:03:42;1.47;;;0.83;;
76863;SDS011;65834;52.364;9.754;2023-04-24T14:06:12;1.27;;;0.90;;
76863;SDS011;65834;52.364;9.754;2023-04-24T14:08:42;0.77;;;0.47;;
76863;SDS011;65834;52.364;9.754;2023-04-24T14:11:11;3.40;;;0.70;;
76863;SDS011;65834;52.364;9.754;2023-04-24T14:13:41;3.37;;;0.80;;
76863;SDS011;65834;52.364;9.754;2023-04-24T14:16:12;4.80;;;1.27;;
76863;SDS011;65834;52.364;9.754;2023-04-24T14:18:44;2.07;;;1.07;;
76863;SDS011;65834;52.364;9.754;2023-04-24T14:21:14;2.03;;;1.17;;
76863;SDS011;65834;52.364;9.754;2023-04-24T14:23:43;1.83;;;1.13;;
76863;SDS011;65834;52.364;9.754;2023-04-24T14:26:13;2.57;;;1.10;;
76863;SDS011;65834;52.364;9.754;2023-04-24T14:28:42;3.63;;;1.57;;
76863;SDS011;65834;52.364;9.754;2023-04-24T14:31:12;4.20;;;1.53;;
76863;SDS011;65834;52.364;9.754;2023-04-24T14:33:44;6.70;;;1.60;;
76863;SDS011;65834;52.364;9.754;2023-04-24T14:36:14;2.55;;;1.25;;
76863;SDS011;65834;52.364;9.754;2023-04-24T14:38:43;5.83;;;2.43;;
76863;SDS011;65834;52.364;9.754;2023-04-24T14:41:13;4.30;;;1.60;;
76863;SDS011;65834;52.364;9.754;2023-04-24T14:43:42;4.43;;;1.63;;
76863;SDS011;65834;52.364;9.754;2023-04-24T14:46:12;5.53;;;1.83;;
76863;SDS011;65834;52.364;9.754;2023-04-24T14:48:45;5.33;;;1.73;;
76863;SDS011;65834;52.364;9.754;2023-04-24T14:51:14;5.00;;;1.75;;
76863;SDS011;65834;52.364;9.754;2023-04-24T14:53:44;5.93;;;2.20;;
76863;SDS011;65834;52.364;9.754;2023-04-24T14:56:14;5.67;;;2.40;;
76863;SDS011;65834;52.364;9.754;2023-04-24T14:58:44;6.93;;;2.23;;
76863;SDS011;65834;52.364;9.754;2023-04-24T15:01:14;6.47;;;2.33;;
76863;SDS011;65834;52.364;9.754;2023-04-24T15:03:47;7.40;;;2.67;;
76863;SDS011;65834;52.364;9.754;2023-04-24T15:06:17;6.18;;;2.30;;
76863;SDS011;65834;52.364;9.754;2023-04-24T15:08:46;9.77;;;2.87;;
76863;SDS011;65834;52.364;9.754;2023-04-24T15:11:16;7.50;;;2.73;;
76863;SDS011;65834;52.364;9.754;2023-04-24T15:13:46;9.07;;;2.77;;
76863;SDS011;65834;52.364;9.754;2023-04-24T15:16:15;9.03;;;2.80;;
76863;SDS011;65834;52.364;9.754;2023-04-24T15:18:48;8.67;;;2.80;;
76863;SDS011;65834;52.364;9.754;2023-04-24T15:21:17;7.43;;;2.92;;
76863;SDS011;65834;52.364;9.754;2023-04-24T15:23:47;7.83;;;2.83;;
76863;SDS011;65834;52.364;9.754;2023-04-24T15:26:16;8.83;;;3.10;;
76863;SDS011;65834;52.364;9.754;2023-04-24T15:28:46;11.67;;;2.70;;